createdAt,value
2022-09-13T00:04:55.266Z,57.9
2022-09-13T00:10:33.486Z,57.8
2022-09-13T00:21:33.018Z,57.7
2022-09-13T00:27:10.823Z,57.6
2022-09-13T00:32:48.418Z,57.6
2022-09-13T00:38:09.684Z,57.5
2022-09-13T00:43:48.087Z,57.4
2022-09-13T00:49:25.303Z,57.4
2022-09-13T00:55:04.259Z,57.3
2022-09-13T01:00:42.128Z,57.3
2022-09-13T01:06:19.358Z,57.2
2022-09-13T01:11:55.594Z,57.2
2022-09-13T01:17:37.455Z,57.1
2022-09-13T01:23:14.907Z,57.1
2022-09-13T01:28:51.589Z,56.9
2022-09-13T01:34:15.117Z,56.9
2022-09-13T01:39:51.419Z,56.8
2022-09-13T01:45:28.225Z,56.8
2022-09-13T01:50:52.955Z,56.8
2022-09-13T01:56:29.984Z,56.7
2022-09-13T02:02:07.051Z,56.6
2022-09-13T02:07:30.456Z,56.6
2022-09-13T02:13:07.667Z,56.5
2022-09-13T02:18:45.139Z,56.4
2022-09-13T02:24:23.505Z,56.4
2022-09-13T02:30:01.687Z,56.3
2022-09-13T02:35:38.442Z,56.3
2022-09-13T02:41:00.548Z,56.2
2022-09-13T02:46:41.799Z,56.2
2022-09-13T02:52:18.629Z,56.1
2022-09-13T02:57:56.749Z,56
2022-09-13T03:03:35.228Z,56
2022-09-13T03:09:11.347Z,55.9
2022-09-13T03:14:49.093Z,55.9
2022-09-13T03:20:26.849Z,55.8
2022-09-13T03:25:46.970Z,55.7
2022-09-13T03:31:24.138Z,55.6
2022-09-13T03:37:01.983Z,55.6
2022-09-13T03:42:39.286Z,55.4
2022-09-13T03:47:46.820Z,55.4
2022-09-13T03:53:09.669Z,55.3
2022-09-13T03:58:46.462Z,55.3
2022-09-13T04:04:29.417Z,55.3
2022-09-13T04:10:08.789Z,55.2
2022-09-13T04:15:29.857Z,55.1
2022-09-13T04:21:08.829Z,55.1
2022-09-13T04:26:46.553Z,55
2022-09-13T04:32:23.231Z,54.9
2022-09-13T04:38:01.888Z,54.9
2022-09-13T04:43:39.785Z,54.8
2022-09-13T04:49:16.814Z,54.8
2022-09-13T04:54:54.550Z,54.6
2022-09-13T05:00:31.982Z,54.5
2022-09-13T05:06:12.871Z,54.4
2022-09-13T05:11:49.840Z,54.4
2022-09-13T05:17:28.358Z,54.3
2022-09-13T05:23:05.659Z,54.2
2022-09-13T05:28:47.400Z,54.3
2022-09-13T05:34:25.908Z,54.1
2022-09-13T05:40:59.822Z,54.1
2022-09-13T05:46:47.394Z,54
2022-09-13T05:53:14.949Z,54
2022-09-13T05:58:36.990Z,53.9
2022-09-13T06:04:15.287Z,53.8
2022-09-13T06:09:53.831Z,53.8
2022-09-13T06:15:30.755Z,53.7
2022-09-13T06:21:09.523Z,53.6
2022-09-13T06:26:50.850Z,53.6
2022-09-13T06:32:31.961Z,53.6
2022-09-13T06:37:56.681Z,53.5
2022-09-13T06:43:35.069Z,53.4
2022-09-13T06:49:16.521Z,53.4
2022-09-13T06:54:54.067Z,53.3
2022-09-13T07:00:18.488Z,53.3
2022-09-13T07:06:01.511Z,53.2
2022-09-13T07:11:12.902Z,53.1
2022-09-13T07:16:52.937Z,53.1
2022-09-13T07:22:34.446Z,53
2022-09-13T07:28:01.085Z,52.9
2022-09-13T07:33:41.902Z,52.9
2022-09-13T07:39:22.592Z,52.8
2022-09-13T07:44:45.926Z,52.8
2022-09-13T07:50:24.839Z,52.8
2022-09-13T07:56:01.822Z,52.7
2022-09-13T08:01:44.433Z,52.6
2022-09-13T08:07:12.067Z,52.6
2022-09-13T08:12:35.211Z,52.5
2022-09-13T08:18:13.551Z,52.4
2022-09-13T08:23:52.080Z,52.4
2022-09-13T08:34:25.386Z,52.3
2022-09-13T08:45:26.082Z,51.8
2022-09-13T08:51:04.463Z,52.3
2022-09-13T08:56:42.652Z,52.6
2022-09-13T09:02:22.744Z,52.6
2022-09-13T09:07:32.061Z,52.6
2022-09-13T09:12:55.260Z,52.6
2022-09-13T09:18:33.651Z,52.6
2022-09-13T09:23:56.262Z,52.6
2022-09-13T09:29:39.411Z,52.7
2022-09-13T09:35:17.517Z,52.7
2022-09-13T09:40:56.063Z,52.7
2022-09-13T09:46:34.522Z,52.7
2022-09-13T09:52:17.776Z,53.2
2022-09-13T09:57:55.816Z,53.9
2022-09-13T10:03:34.552Z,54.5
2022-09-13T10:09:17.117Z,55.2
2022-09-13T10:14:55.929Z,55.9
2022-09-13T10:20:58.622Z,56.5
2022-09-13T10:26:37.627Z,57.2
2022-09-13T10:32:05.797Z,57.7
2022-09-13T10:38:04.990Z,58.3
2022-09-13T10:43:42.132Z,58.9
2022-09-13T10:49:19.938Z,59.4
2022-09-13T10:55:01.163Z,59.4
2022-09-13T11:00:39.031Z,59.9
2022-09-13T11:06:17.702Z,60.4
2022-09-13T11:11:55.662Z,60.4
2022-09-13T11:17:33.168Z,60.4
2022-09-13T11:23:11.696Z,60.4
2022-09-13T11:28:53.028Z,60.4
2022-09-13T11:34:30.632Z,60.4
2022-09-13T11:40:08.890Z,60.4
2022-09-13T11:45:37.789Z,60.8
2022-09-13T11:51:15.858Z,60.9
2022-09-13T11:56:55.991Z,60.9
2022-09-13T12:02:23.334Z,60.8
2022-09-13T12:08:25.887Z,60.8
2022-09-13T12:14:06.536Z,60.8
2022-09-13T12:19:29.593Z,60.8
2022-09-13T12:24:51.657Z,60.9
2022-09-13T12:30:31.412Z,60.9
2022-09-13T12:36:09.686Z,60.9
2022-09-13T12:41:47.343Z,60.9
2022-09-13T12:47:25.183Z,60.9
2022-09-13T12:53:39.343Z,61
2022-09-13T12:59:32.206Z,61
2022-09-13T13:05:12.664Z,60.9
2022-09-13T13:10:52.826Z,60.9
2022-09-13T13:16:30.715Z,60.9
2022-09-13T13:22:11.634Z,60.9
2022-09-13T13:27:49.470Z,60.9
2022-09-13T13:33:27.840Z,60.8
2022-09-13T13:39:05.825Z,60.8
2022-09-13T13:44:44.451Z,60.8
2022-09-13T13:50:22.784Z,60.7
2022-09-13T13:56:00.857Z,60.7
2022-09-13T14:01:42.354Z,60.6
2022-09-13T14:07:35.470Z,60.6
2022-09-13T14:13:15.128Z,60.5
2022-09-13T14:18:39.345Z,60.5
2022-09-13T14:24:01.343Z,60.4
2022-09-13T14:29:12.310Z,60.4
2022-09-13T14:34:42.924Z,60.4
2022-09-13T14:40:05.101Z,60.3
2022-09-13T14:45:49.871Z,60.3
2022-09-13T14:51:13.046Z,60.3
2022-09-13T14:56:50.734Z,60.2
2022-09-13T15:02:35.249Z,60.1
2022-09-13T15:08:13.857Z,60.1
2022-09-13T15:13:52.961Z,60.1
2022-09-13T15:19:31.427Z,60.1
2022-09-13T15:25:09.801Z,60
2022-09-13T15:30:47.406Z,59.9
2022-09-13T15:36:25.667Z,59.9
2022-09-13T15:42:03.397Z,59.9
2022-09-13T15:47:41.420Z,59.8
2022-09-13T15:53:19.884Z,59.8
2022-09-13T15:58:42.401Z,59.8
2022-09-13T16:04:05.675Z,59.7
2022-09-13T16:09:32.402Z,59.6
2022-09-13T16:15:10.832Z,59.6
2022-09-13T16:20:49.342Z,59.6
2022-09-13T16:26:28.068Z,59.6
2022-09-13T16:32:06.705Z,59.5
2022-09-13T16:37:44.859Z,59.4
2022-09-13T16:43:23.753Z,59.4
2022-09-13T16:49:01.973Z,59.4
2022-09-13T16:54:39.244Z,59.3
2022-09-13T16:59:49.169Z,59.3
2022-09-13T17:05:00.799Z,59.3
2022-09-13T17:10:23.175Z,59.2
2022-09-13T17:16:01.052Z,59.1
2022-09-13T17:21:39.373Z,59.1
2022-09-13T17:27:20.424Z,59.1
2022-09-13T17:33:03.755Z,59.1
2022-09-13T17:38:42.030Z,58.9
2022-09-13T17:44:24.616Z,58.9
2022-09-13T17:50:03.322Z,58.9
2022-09-13T17:55:42.628Z,58.9
2022-09-13T18:01:24.686Z,58.8
2022-09-13T18:06:52.918Z,58.8
2022-09-13T18:13:13.887Z,58.8
2022-09-13T18:19:00.128Z,58.7
2022-09-13T18:24:56.438Z,58.6
2022-09-13T18:30:37.806Z,58.6
2022-09-13T18:41:42.242Z,58.5
2022-09-13T18:47:07.175Z,58.5
2022-09-13T18:52:46.866Z,58.4
2022-09-13T18:58:31.169Z,58.4
2022-09-13T19:04:17.377Z,58.4
2022-09-13T19:09:40.361Z,58.3
2022-09-13T19:15:31.247Z,58.3
2022-09-13T19:21:10.202Z,58.2
2022-09-13T19:27:10.247Z,58.2
2022-09-13T19:32:49.323Z,58.1
2022-09-13T19:38:34.889Z,58.1
2022-09-13T19:44:02.242Z,58.1
2022-09-13T19:51:00.794Z,58
2022-09-13T19:56:47.844Z,57.9
2022-09-13T20:02:13.976Z,57.9
2022-09-13T20:07:36.345Z,57.9
2022-09-13T20:13:03.715Z,57.8
2022-09-13T20:18:42.122Z,57.8
2022-09-13T20:30:08.923Z,57.7
2022-09-13T20:35:32.622Z,57.6
2022-09-13T20:41:13.457Z,57.4
2022-09-13T20:46:52.721Z,57.4
2022-09-13T20:52:14.313Z,57.4
2022-09-13T20:57:52.766Z,57.3
2022-09-13T21:03:16.562Z,57.3
2022-09-13T21:08:54.856Z,57.3
2022-09-13T21:14:18.291Z,57.2
2022-09-13T21:19:56.180Z,57.1
2022-09-13T21:25:33.993Z,57.1
2022-09-13T21:30:57.285Z,57.1
2022-09-13T21:36:39.708Z,57
2022-09-13T21:42:17.351Z,56.9
2022-09-13T21:47:40.862Z,56.9
2022-09-13T21:53:19.079Z,56.9
2022-09-13T21:58:48.048Z,56.8
2022-09-13T22:04:15.506Z,56.8
2022-09-13T22:10:03.116Z,56.8
2022-09-13T22:20:57.840Z,56.6
2022-09-13T22:26:42.637Z,56.6
2022-09-13T22:32:23.594Z,56.6
2022-09-13T22:37:53.289Z,56.5
2022-09-13T22:43:30.614Z,56.4
2022-09-13T22:49:07.654Z,56.4
2022-09-13T22:54:46.164Z,56.4
2022-09-13T23:00:23.165Z,56.3
2022-09-13T23:06:02.379Z,56.3
2022-09-13T23:11:40.051Z,56.3
2022-09-13T23:17:18.514Z,56.2
2022-09-13T23:22:55.344Z,56.1
2022-09-13T23:28:33.224Z,56.1
2022-09-13T23:33:55.506Z,56.1
2022-09-13T23:39:32.719Z,56
2022-09-13T23:44:39.916Z,55.9
2022-09-13T23:50:17.312Z,55.9
2022-09-13T23:55:39.593Z,55.9
